Time;durP1;ratioP1;P1;durP2;ratioP2;P2;SDS_P1;SDS_P2;PMS_P1;PMS_P2;Temp;Humidity;BMP_temperature;BMP_pressure;BME280_temperature;BME280_humidity;BME280_pressure;Samples;Min_cycle;Max_cycle;Signal;HPM_P1;HPM_P2
2023/07/31 00:01:42;;;;;;;28.50;5.68;;;;;;;-142.75;100.00;75525.16;5094757;28;20440;-63
2023/07/31 00:04:07;;;;;;;20.48;4.63;;;;;;;-142.75;100.00;75517.28;5093749;28;20059;-63
2023/07/31 00:06:32;;;;;;;28.38;5.18;;;;;;;-142.75;100.00;75531.06;5095169;28;20028;-63
2023/07/31 00:08:58;;;;;;;27.30;5.38;;;;;;;-142.75;100.00;75531.06;5095371;28;20035;-63
2023/07/31 00:11:23;;;;;;;25.15;5.90;;;;;;;-142.75;100.00;75535.00;5095587;28;20083;-63
2023/07/31 00:13:48;;;;;;;22.38;5.32;;;;;;;-142.75;100.00;75535.00;5098093;28;20058;-64
2023/07/31 00:16:14;;;;;;;23.50;5.95;;;;;;;-142.75;100.00;75535.00;5095473;28;20020;-63
2023/07/31 00:18:39;;;;;;;22.05;5.25;;;;;;;-142.75;100.00;75535.00;5094882;28;20115;-63
2023/07/31 00:21:04;;;;;;;27.80;6.50;;;;;;;-142.75;100.00;75538.94;5094838;28;20092;-63
2023/07/31 00:23:30;;;;;;;22.48;5.30;;;;;;;-142.75;100.00;75536.97;5095377;28;20023;-63
2023/07/31 00:25:55;;;;;;;30.50;5.55;;;;;;;-142.75;100.00;75531.06;5095053;28;20027;-63
2023/07/31 00:28:20;;;;;;;28.92;5.93;;;;;;;-142.75;100.00;75531.06;5094920;28;20046;-63
2023/07/31 00:30:46;;;;;;;28.98;6.10;;;;;;;-142.75;100.00;75529.09;5094695;28;20118;-63
2023/07/31 00:33:11;;;;;;;31.67;6.65;;;;;;;-142.75;100.00;75531.06;5094578;28;20115;-63
2023/07/31 00:35:37;;;;;;;24.70;5.65;;;;;;;-142.75;100.00;75536.97;5094800;28;20031;-62
2023/07/31 00:38:02;;;;;;;24.05;6.32;;;;;;;-142.75;100.00;75531.06;5094946;28;20023;-63
2023/07/31 00:40:27;;;;;;;20.02;5.70;;;;;;;-142.75;100.00;75538.94;5094652;28;20039;-63
2023/07/31 00:42:53;;;;;;;32.63;5.93;;;;;;;-142.75;100.00;75544.84;5094547;28;20402;-63
2023/07/31 00:45:18;;;;;;;26.75;6.82;;;;;;;-142.75;100.00;75548.78;5094736;28;20040;-63
2023/07/31 00:47:44;;;;;;;25.20;6.68;;;;;;;-142.75;100.00;75529.09;5094623;28;20020;-63
2023/07/31 00:50:10;;;;;;;27.67;6.15;;;;;;;-142.75;100.00;75523.19;5094780;28;20553;-63
2023/07/31 00:52:35;;;;;;;28.08;6.95;;;;;;;-142.75;100.00;75519.25;5094348;28;20604;-64
2023/07/31 00:55:01;;;;;;;25.08;5.90;;;;;;;-142.75;100.00;75521.22;5094817;28;20020;-63
2023/07/31 00:57:26;;;;;;;29.85;5.82;;;;;;;-142.75;100.00;75529.09;5076285;28;20115;-63
2023/07/31 00:59:52;;;;;;;34.42;7.05;;;;;;;-142.75;100.00;75536.97;5074603;28;20480;-63
2023/07/31 01:02:17;;;;;;;21.40;4.93;;;;;;;-142.75;100.00;75535.00;5073953;28;20097;-63
2023/07/31 01:04:43;;;;;;;21.30;5.38;;;;;;;-142.75;100.00;75538.94;5074351;28;20055;-64
2023/07/31 01:07:43;;;;;;;20.17;4.22;;;;;;;-142.75;100.00;75542.88;5074259;28;20039;-63
2023/07/31 01:10:17;;;;;;;17.67;4.43;;;;;;;-142.75;100.00;75546.81;5070692;28;20020;-63
2023/07/31 01:12:45;;;;;;;9.52;3.05;;;;;;;-142.75;100.00;75544.84;5070544;28;20115;-63
2023/07/31 01:15:11;;;;;;;7.13;2.67;;;;;;;-142.75;100.00;75550.75;5071065;28;20028;-63
2023/07/31 01:17:37;;;;;;;9.00;2.88;;;;;;;-142.75;100.00;75550.75;5071017;28;20440;-63
2023/07/31 01:20:06;;;;;;;12.00;2.45;;;;;;;-142.75;100.00;75558.63;5071111;28;20073;-63
2023/07/31 01:23:08;;;;;;;12.10;3.55;;;;;;;-142.75;100.00;75546.81;5069513;28;20030;-63
2023/07/31 01:25:51;;;;;;;19.50;4.00;;;;;;;-142.75;100.00;75536.97;5071047;28;20050;-64
2023/07/31 01:28:27;;;;;;;17.55;5.20;;;;;;;-142.75;100.00;75546.81;5071113;28;20496;-64
2023/07/31 01:30:56;;;;;;;20.08;4.47;;;;;;;-142.75;100.00;75529.09;5070766;28;20035;-62
2023/07/31 01:33:22;;;;;;;22.23;4.85;;;;;;;-142.75;100.00;75538.94;5070867;28;20020;-63
2023/07/31 01:35:49;;;;;;;26.75;4.40;;;;;;;-142.75;100.00;75513.38;5070728;28;20013;-62
2023/07/31 01:38:14;;;;;;;19.48;5.38;;;;;;;-142.75;100.00;75529.09;5070704;28;20099;-62
2023/07/31 01:40:42;;;;;;;21.98;4.60;;;;;;;-142.75;100.00;75515.31;5070416;28;20103;-63
2023/07/31 01:43:07;;;;;;;15.70;5.28;;;;;;;-142.75;100.00;75519.25;5070493;28;20032;-63
2023/07/31 01:45:32;;;;;;;20.00;4.97;;;;;;;-142.75;100.00;75517.28;5070603;28;20052;-63
2023/07/31 01:47:58;;;;;;;20.95;4.43;;;;;;;-142.75;100.00;75511.41;5070398;28;20137;-63
2023/07/31 01:50:23;;;;;;;27.52;6.03;;;;;;;-142.75;100.00;75523.19;5070347;28;20028;-63
2023/07/31 01:52:48;;;;;;;26.55;6.60;;;;;;;-142.75;100.00;75519.25;5069946;28;20506;-62
2023/07/31 01:55:14;;;;;;;16.63;4.65;;;;;;;-142.75;100.00;75527.13;5070333;28;20027;-63
2023/07/31 01:57:39;;;;;;;22.48;6.20;;;;;;;-142.75;100.00;75515.31;5070383;28;20040;-62
2023/07/31 02:00:05;;;;;;;23.42;6.10;;;;;;;-142.75;100.00;75509.44;5070187;28;20750;-63
2023/07/31 02:02:31;;;;;;;23.80;5.28;;;;;;;-142.75;100.00;75501.56;5070038;28;20044;-63
2023/07/31 02:04:56;;;;;;;29.95;6.78;;;;;;;-142.75;100.00;75509.44;5069972;28;20024;-63
2023/07/31 02:07:22;;;;;;;20.65;5.03;;;;;;;-142.75;100.00;75509.44;5070316;28;20044;-63
2023/07/31 02:09:47;;;;;;;25.77;5.78;;;;;;;-142.75;100.00;75499.59;5070118;28;20103;-63
2023/07/31 02:12:14;;;;;;;30.15;6.47;;;;;;;-142.75;100.00;75495.66;5069719;28;20020;-63
2023/07/31 02:14:40;;;;;;;26.98;7.05;;;;;;;-142.75;100.00;75503.53;5069883;28;20048;-63
2023/07/31 02:17:05;;;;;;;24.15;5.78;;;;;;;-142.75;100.00;75509.44;5070049;28;20409;-63
2023/07/31 02:19:31;;;;;;;26.77;5.88;;;;;;;-142.75;100.00;75497.63;5068339;28;20401;-63
2023/07/31 02:21:56;;;;;;;22.13;5.45;;;;;;;-142.75;100.00;75497.63;5069463;28;20073;-63
2023/07/31 02:24:21;;;;;;;22.85;6.25;;;;;;;-142.75;100.00;75493.69;5069628;28;20123;-63
2023/07/31 02:26:47;;;;;;;26.23;5.80;;;;;;;-142.75;100.00;75519.25;5069759;28;20229;-63
2023/07/31 02:29:12;;;;;;;23.55;5.07;;;;;;;-142.75;100.00;75509.44;5069612;28;20059;-63
2023/07/31 02:31:37;;;;;;;25.23;5.80;;;;;;;-142.75;100.00;75519.25;5069204;28;20024;-63
2023/07/31 02:34:03;;;;;;;23.98;6.20;;;;;;;-142.75;100.00;75525.16;5069503;28;20036;-63
2023/07/31 02:36:28;;;;;;;19.35;5.65;;;;;;;-142.75;100.00;75527.13;5068268;28;20042;-63
2023/07/31 02:38:53;;;;;;;22.05;5.50;;;;;;;-142.75;100.00;75535.00;5069493;28;20507;-63
2023/07/31 02:41:19;;;;;;;16.75;4.50;;;;;;;-142.75;100.00;75535.00;5068961;28;20368;-63
2023/07/31 02:43:44;;;;;;;22.50;5.40;;;;;;;-142.75;100.00;75556.66;5069595;28;20024;-63
2023/07/31 02:46:09;;;;;;;18.02;5.45;;;;;;;-142.75;100.00;75558.63;5069568;28;20111;-63
2023/07/31 02:48:34;;;;;;;21.40;4.68;;;;;;;-142.75;100.00;75544.84;5069150;28;20020;-64
2023/07/31 02:51:00;;;;;;;17.88;5.18;;;;;;;-142.75;100.00;75531.06;5069078;28;20670;-63
2023/07/31 02:53:25;;;;;;;17.63;4.30;;;;;;;-142.75;100.00;75538.94;5069092;28;20452;-63
2023/07/31 02:55:50;;;;;;;24.25;5.30;;;;;;;-142.75;100.00;75535.00;5069151;28;20448;-63
2023/07/31 02:58:16;;;;;;;17.48;5.13;;;;;;;-142.75;100.00;75546.81;5069059;28;20682;-64
2023/07/31 03:00:44;;;;;;;18.25;4.53;;;;;;;-142.75;100.00;75525.16;5068779;28;20438;-61
2023/07/31 03:03:10;;;;;;;18.27;4.60;;;;;;;-142.75;100.00;75542.88;5068720;28;20017;-63
2023/07/31 03:05:35;;;;;;;27.42;4.85;;;;;;;-142.75;100.00;75542.88;5069025;28;20031;-63
2023/07/31 03:08:01;;;;;;;25.73;4.63;;;;;;;-142.75;100.00;75554.69;5068897;28;20027;-63
2023/07/31 03:10:27;;;;;;;19.85;4.43;;;;;;;-142.75;100.00;75538.94;5067457;28;20063;-64
2023/07/31 03:12:52;;;;;;;18.67;5.38;;;;;;;-142.75;100.00;75523.19;5068404;28;20035;-64
2023/07/31 03:15:17;;;;;;;18.33;4.78;;;;;;;-142.75;100.00;75513.38;5068881;28;20030;-64
2023/07/31 03:17:43;;;;;;;20.30;5.20;;;;;;;-142.75;100.00;75531.06;5088387;28;20056;-64
2023/07/31 03:20:08;;;;;;;20.23;5.70;;;;;;;-142.75;100.00;75515.31;5089104;28;20031;-64
2023/07/31 03:22:35;;;;;;;16.40;4.57;;;;;;;-142.75;100.00;75519.25;5088822;28;20534;-64
2023/07/31 03:25:01;;;;;;;26.77;5.38;;;;;;;-142.75;100.00;75517.28;5088983;28;20027;-64
2023/07/31 03:27:26;;;;;;;23.63;4.90;;;;;;;-142.75;100.00;75525.16;5088895;28;20031;-63
2023/07/31 03:29:51;;;;;;;22.15;5.50;;;;;;;-142.75;100.00;75540.91;5088750;28;20019;-63
2023/07/31 03:32:17;;;;;;;13.93;5.22;;;;;;;-142.75;100.00;75525.16;5087700;28;20391;-64
2023/07/31 03:34:42;;;;;;;20.95;5.45;;;;;;;-142.75;100.00;75535.00;5088419;28;20475;-63
2023/07/31 03:37:09;;;;;;;19.30;4.85;;;;;;;-142.75;100.00;75538.94;5088715;28;20558;-63
2023/07/31 03:39:35;;;;;;;22.42;5.20;;;;;;;-142.75;100.00;75540.91;5087522;28;20425;-63
2023/07/31 03:42:00;;;;;;;23.52;5.00;;;;;;;-142.75;100.00;75527.13;5088322;28;20032;-63
2023/07/31 03:44:26;;;;;;;21.33;5.10;;;;;;;-142.75;100.00;75548.78;5088448;28;20053;-63
2023/07/31 03:46:51;;;;;;;14.80;4.47;;;;;;;-142.75;100.00;75531.06;5088528;28;20079;-63
2023/07/31 03:49:16;;;;;;;17.70;5.05;;;;;;;-142.75;100.00;75542.88;5088507;28;20534;-63
2023/07/31 03:51:42;;;;;;;15.35;4.70;;;;;;;-142.75;100.00;75529.09;5088120;28;20590;-63
2023/07/31 03:54:07;;;;;;;18.30;5.25;;;;;;;-142.75;100.00;75523.19;5088676;28;20024;-63
2023/07/31 03:56:33;;;;;;;15.45;5.00;;;;;;;-142.75;100.00;75525.16;5088594;28;20028;-63
2023/07/31 03:58:58;;;;;;;14.07;4.80;;;;;;;-142.75;100.00;75515.31;5088337;28;20449;-63
2023/07/31 04:01:24;;;;;;;15.80;4.15;;;;;;;-142.75;100.00;75531.06;5088046;28;20220;-63
2023/07/31 04:03:49;;;;;;;16.13;5.13;;;;;;;-142.75;100.00;75519.25;5088255;28;20499;-63
2023/07/31 04:06:17;;;;;;;15.20;4.97;;;;;;;-142.75;100.00;75515.31;5088489;28;20119;-63
2023/07/31 04:08:43;;;;;;;15.93;4.68;;;;;;;-142.75;100.00;75501.56;5088289;28;20502;-63
2023/07/31 04:11:09;;;;;;;12.85;4.28;;;;;;;-142.75;100.00;75503.53;5087929;28;20110;-63
2023/07/31 04:13:34;;;;;;;12.85;4.13;;;;;;;-142.75;100.00;75509.44;5088387;28;20107;-63
2023/07/31 04:15:59;;;;;;;11.68;3.88;;;;;;;-142.75;100.00;75501.56;5088166;28;20054;-63
2023/07/31 04:18:25;;;;;;;10.48;4.50;;;;;;;-142.75;100.00;75489.75;5088288;28;20144;-63
2023/07/31 04:20:51;;;;;;;10.10;3.53;;;;;;;-142.75;100.00;75495.66;5087477;28;20046;-63
2023/07/31 04:23:16;;;;;;;12.13;4.00;;;;;;;-142.75;100.00;75487.78;5088018;28;20024;-63
2023/07/31 04:25:41;;;;;;;10.95;3.55;;;;;;;-142.75;100.00;75479.91;5088326;28;20027;-63
2023/07/31 04:28:07;;;;;;;10.77;4.03;;;;;;;-142.75;100.00;75489.75;5088344;28;20380;-62
2023/07/31 04:30:33;;;;;;;12.15;3.92;;;;;;;-142.75;100.00;75495.66;5071790;28;20028;-63
2023/07/31 04:32:58;;;;;;;9.30;3.60;;;;;;;-142.75;100.00;75499.59;5067622;28;20499;-63
2023/07/31 04:35:24;;;;;;;11.40;3.40;;;;;;;-142.75;100.00;75483.84;5068012;28;20024;-63
2023/07/31 04:37:49;;;;;;;10.38;4.18;;;;;;;-142.75;100.00;75493.69;5067728;28;20654;-63
2023/07/31 04:40:15;;;;;;;9.52;3.72;;;;;;;-142.75;100.00;75485.81;5067671;28;20031;-62
2023/07/31 04:42:41;;;;;;;8.55;3.83;;;;;;;-142.75;100.00;75493.69;5067542;28;20036;-63
2023/07/31 04:45:08;;;;;;;12.93;3.88;;;;;;;-142.75;100.00;75499.59;5070910;28;20047;-63
2023/07/31 04:47:33;;;;;;;13.65;4.10;;;;;;;-142.75;100.00;75475.97;5071473;28;20210;-63
2023/07/31 04:49:58;;;;;;;11.88;3.63;;;;;;;-142.75;100.00;75491.72;5071488;28;20469;-63
2023/07/31 04:52:24;;;;;;;10.27;4.68;;;;;;;-142.75;100.00;75483.84;5071139;28;20032;-63
2023/07/31 04:54:49;;;;;;;12.57;3.95;;;;;;;-142.75;100.00;75477.94;5071309;28;20039;-63
2023/07/31 04:57:14;;;;;;;11.32;4.30;;;;;;;-142.75;100.00;75464.16;5075521;28;20024;-63
2023/07/31 04:59:40;;;;;;;13.00;4.47;;;;;;;-142.75;100.00;75491.72;5091365;28;20026;-62
2023/07/31 05:02:06;;;;;;;15.90;5.03;;;;;;;-142.75;100.00;75477.94;5091356;28;20034;-61
2023/07/31 05:04:32;;;;;;;11.02;3.90;;;;;;;-142.75;100.00;75475.97;5091690;28;20055;-63
2023/07/31 05:06:57;;;;;;;13.43;3.58;;;;;;;-142.75;100.00;75481.88;5091581;28;20503;-62
2023/07/31 05:09:22;;;;;;;8.57;3.50;;;;;;;-142.75;100.00;75470.06;5091387;28;20020;-62
2023/07/31 05:11:48;;;;;;;11.00;2.85;;;;;;;-142.75;100.00;75466.13;5090108;28;20075;-62
2023/07/31 05:14:14;;;;;;;7.65;2.90;;;;;;;-142.75;100.00;75460.22;5091208;28;20036;-62
2023/07/31 05:16:39;;;;;;;10.02;3.53;;;;;;;-142.75;100.00;75464.16;5091285;28;20036;-62
2023/07/31 05:19:04;;;;;;;5.68;2.67;;;;;;;-142.75;100.00;75454.31;5091293;28;20034;-62
2023/07/31 05:21:29;;;;;;;5.30;2.65;;;;;;;-142.75;100.00;75456.28;5090899;28;20028;-63
2023/07/31 05:23:55;;;;;;;7.97;3.50;;;;;;;-142.75;100.00;75458.25;5091137;28;20016;-62
2023/07/31 05:26:20;;;;;;;9.93;3.15;;;;;;;-142.75;100.00;75448.41;5091070;28;20094;-63
2023/07/31 05:28:45;;;;;;;5.70;2.63;;;;;;;-142.75;100.00;75444.47;5091206;28;20020;-62
2023/07/31 05:31:11;;;;;;;6.45;3.08;;;;;;;-142.75;100.00;75452.34;5089317;28;20047;-62
2023/07/31 05:33:36;;;;;;;7.15;2.88;;;;;;;-142.75;100.00;75436.59;5090908;28;20157;-62
2023/07/31 05:36:01;;;;;;;11.05;2.83;;;;;;;-142.75;100.00;75418.91;5091151;28;20048;-62
2023/07/31 05:38:27;;;;;;;9.00;2.45;;;;;;;-142.75;100.00;75432.69;5090933;28;20024;-62
2023/07/31 05:40:52;;;;;;;8.18;2.92;;;;;;;-142.75;100.00;75426.78;5090682;28;20542;-62
2023/07/31 05:43:17;;;;;;;7.32;2.60;;;;;;;-142.75;100.00;75428.75;5090852;28;20112;-62
2023/07/31 05:45:44;;;;;;;6.32;2.53;;;;;;;-142.75;100.00;75407.09;5090541;28;20044;-63
2023/07/31 05:48:09;;;;;;;8.95;2.95;;;;;;;-142.75;100.00;75428.75;5090665;28;20023;-62
2023/07/31 05:50:35;;;;;;;5.28;2.58;;;;;;;-142.75;100.00;75428.75;5088441;28;20028;-62
2023/07/31 05:53:00;;;;;;;7.65;2.92;;;;;;;-142.75;100.00;75428.75;5070198;28;20032;-62
2023/07/31 05:55:26;;;;;;;5.88;2.47;;;;;;;-142.75;100.00;75409.06;5069712;28;20023;-62
2023/07/31 05:57:52;;;;;;;6.03;2.30;;;;;;;-142.75;100.00;75385.44;5070272;28;20031;-62
2023/07/31 06:00:18;;;;;;;8.20;2.80;;;;;;;-142.75;100.00;75389.38;5070017;28;20024;-63
2023/07/31 06:02:43;;;;;;;8.48;2.65;;;;;;;-142.75;100.00;75399.22;5069944;28;20021;-62
2023/07/31 06:05:08;;;;;;;5.80;2.75;;;;;;;-142.75;100.00;75385.44;5069896;28;20031;-63
2023/07/31 06:07:34;;;;;;;6.63;2.70;;;;;;;-142.75;100.00;75373.63;5070295;28;20407;-62
2023/07/31 06:10:05;;;;;;;11.52;3.60;;;;;;;-142.75;100.00;75381.50;5070065;28;20024;-62
2023/07/31 06:12:31;;;;;;;7.80;2.90;;;;;;;-142.75;100.00;75381.50;5070315;28;20119;-63
2023/07/31 06:14:57;;;;;;;7.35;2.63;;;;;;;-142.75;100.00;75365.75;5071751;28;20021;-63
2023/07/31 06:17:22;;;;;;;6.43;3.00;;;;;;;-142.75;100.00;75361.84;5069892;28;20491;-63
2023/07/31 06:19:48;;;;;;;8.45;2.85;;;;;;;-142.75;100.00;75359.88;5069813;28;20035;-63
2023/07/31 06:22:14;;;;;;;6.13;2.60;;;;;;;-142.75;100.00;75355.94;5069495;28;20043;-63
2023/07/31 06:24:39;;;;;;;7.47;2.92;;;;;;;-142.75;100.00;75346.09;5069816;28;20012;-63
2023/07/31 06:27:05;;;;;;;7.32;3.00;;;;;;;-142.75;100.00;75350.03;5069733;28;20043;-64
2023/07/31 06:29:31;;;;;;;6.70;2.97;;;;;;;-142.75;100.00;75361.84;5069607;28;20051;-63
2023/07/31 06:31:56;;;;;;;6.35;2.85;;;;;;;-142.75;100.00;75338.22;5069385;28;20021;-62
2023/07/31 06:34:22;;;;;;;4.35;1.77;;;;;;;-142.75;100.00;75350.03;5069263;28;20115;-62
2023/07/31 06:36:47;;;;;;;7.32;2.90;;;;;;;-142.75;100.00;75344.13;5069544;28;20028;-63
2023/07/31 06:39:13;;;;;;;9.30;2.80;;;;;;;-142.75;100.00;75332.31;5069400;28;20020;-63
2023/07/31 06:41:38;;;;;;;5.88;2.20;;;;;;;-142.75;100.00;75338.22;5069037;28;20046;-63
2023/07/31 06:44:04;;;;;;;5.25;2.20;;;;;;;-142.75;100.00;75322.47;5069291;28;20125;-63
2023/07/31 06:46:29;;;;;;;4.97;2.22;;;;;;;-142.75;100.00;75306.72;5069348;28;20032;-63
2023/07/31 06:48:55;;;;;;;4.38;2.22;;;;;;;-142.75;100.00;75320.50;5069331;28;20052;-63
2023/07/31 06:51:20;;;;;;;5.38;2.05;;;;;;;-142.75;100.00;75294.94;5069214;28;20074;-63
2023/07/31 06:53:46;;;;;;;7.40;2.22;;;;;;;-142.75;100.00;75292.97;5069416;28;20115;-62
2023/07/31 06:56:11;;;;;;;6.93;2.30;;;;;;;-142.75;100.00;75289.03;5069136;28;20032;-63
2023/07/31 06:58:36;;;;;;;4.38;2.03;;;;;;;-142.75;100.00;75302.78;5069072;28;20059;-63
2023/07/31 07:01:02;;;;;;;4.65;1.83;;;;;;;-142.75;100.00;75289.03;5074431;28;20035;-63
2023/07/31 07:03:27;;;;;;;4.05;1.75;;;;;;;-142.75;100.00;75300.81;5072735;28;20023;-63
2023/07/31 07:05:53;;;;;;;5.97;1.90;;;;;;;-142.75;100.00;75285.09;5074141;28;20462;-63
2023/07/31 07:08:18;;;;;;;5.38;2.05;;;;;;;-142.75;100.00;75287.06;5074321;28;20120;-63
2023/07/31 07:10:43;;;;;;;3.78;1.42;;;;;;;-142.75;100.00;75294.94;5075786;28;21338;-63
2023/07/31 07:13:09;;;;;;;3.80;1.55;;;;;;;-142.75;100.00;75298.84;5070722;28;20036;-63
2023/07/31 07:15:34;;;;;;;3.25;1.30;;;;;;;-142.75;100.00;75291.00;5079370;28;20399;-65
2023/07/31 07:18:00;;;;;;;3.92;1.40;;;;;;;-142.75;100.00;75275.25;5079656;28;20024;-62
2023/07/31 07:20:25;;;;;;;2.50;1.23;;;;;;;-142.75;100.00;75283.13;5083706;28;20028;-63
2023/07/31 07:22:51;;;;;;;2.95;1.55;;;;;;;-142.75;100.00;75279.19;5080826;28;20035;-62
2023/07/31 07:25:16;;;;;;;3.40;1.38;;;;;;;-142.75;100.00;75275.25;5083343;28;20028;-63
2023/07/31 07:27:41;;;;;;;4.18;1.60;;;;;;;-142.75;100.00;75285.09;5082689;28;20031;-62
2023/07/31 07:30:07;;;;;;;3.17;1.80;;;;;;;-142.75;100.00;75279.19;5079947;28;20031;-62
2023/07/31 07:32:33;;;;;;;3.35;1.70;;;;;;;-142.75;100.00;75257.53;5085388;28;20563;-62
2023/07/31 07:34:58;;;;;;;2.85;1.17;;;;;;;-142.75;100.00;75269.34;5079731;28;20024;-63
2023/07/31 07:37:23;;;;;;;3.08;1.60;;;;;;;-142.75;100.00;75279.19;5086712;28;20156;-64
2023/07/31 07:39:49;;;;;;;2.42;1.02;;;;;;;-142.75;100.00;75267.38;5083341;28;20024;-64
2023/07/31 07:42:14;;;;;;;6.47;1.63;;;;;;;-142.75;100.00;75257.53;5072655;28;20031;-64
2023/07/31 07:44:40;;;;;;;3.88;1.48;;;;;;;-142.75;100.00;75251.63;5072923;28;20099;-63
2023/07/31 07:47:08;;;;;;;4.80;1.90;;;;;;;-142.75;100.00;75235.88;5073995;28;20028;-63
2023/07/31 07:49:34;;;;;;;2.90;1.50;;;;;;;-142.75;100.00;75224.09;5075978;28;20066;-63
2023/07/31 07:52:00;;;;;;;3.78;1.13;;;;;;;-142.75;100.00;75226.06;5069742;28;20099;-63
2023/07/31 07:54:26;;;;;;;1.88;1.17;;;;;;;-142.75;100.00;75237.84;5068791;28;20119;-63
2023/07/31 07:56:51;;;;;;;1.38;0.95;;;;;;;-142.75;100.00;75224.09;5067897;28;20099;-64
2023/07/31 07:59:17;;;;;;;1.98;1.00;;;;;;;-142.75;100.00;75218.19;5069269;28;20048;-64
2023/07/31 08:01:42;;;;;;;3.03;1.48;;;;;;;-142.75;100.00;75212.28;5071254;28;20453;-63
2023/07/31 08:04:07;;;;;;;3.47;1.70;;;;;;;-142.75;100.00;75186.69;5067696;28;20027;-63
2023/07/31 08:06:33;;;;;;;2.97;1.20;;;;;;;-142.75;100.00;75190.63;5069110;28;20484;-64
2023/07/31 08:08:59;;;;;;;2.33;1.45;;;;;;;-142.75;100.00;75186.69;5079577;28;20075;-65
2023/07/31 08:11:24;;;;;;;2.55;1.00;;;;;;;-142.75;100.00;75172.91;5083458;28;20616;-64
2023/07/31 08:13:50;;;;;;;3.08;1.00;;;;;;;-142.75;100.00;75172.91;5076173;28;20063;-64
2023/07/31 08:16:15;;;;;;;2.53;0.85;;;;;;;-142.75;100.00;75176.84;5068319;28;20020;-64
2023/07/31 08:18:42;;;;;;;2.38;1.20;;;;;;;-142.75;100.00;75172.91;5070133;28;20024;-64
2023/07/31 08:21:07;;;;;;;2.35;0.88;;;;;;;-142.75;100.00;75180.78;5071221;28;20086;-64
2023/07/31 08:23:33;;;;;;;2.70;1.02;;;;;;;-142.75;100.00;75188.66;5071538;28;20020;-63
2023/07/31 08:25:58;;;;;;;4.00;0.90;;;;;;;-142.75;100.00;75186.69;5071902;28;20025;-64
2023/07/31 08:28:23;;;;;;;1.63;0.70;;;;;;;-142.75;100.00;75188.66;5080172;28;20040;-66
2023/07/31 08:30:50;;;;;;;4.63;0.80;;;;;;;-142.75;100.00;75182.75;5072451;28;20169;-64
2023/07/31 08:33:15;;;;;;;3.63;1.02;;;;;;;-142.75;100.00;75172.91;5071176;28;20023;-63
2023/07/31 08:35:41;;;;;;;1.73;0.50;;;;;;;-142.75;100.00;75157.19;5071388;28;20029;-64
2023/07/31 08:38:06;;;;;;;1.73;0.73;;;;;;;-142.75;100.00;75147.34;5075921;28;20024;-64
2023/07/31 08:40:31;;;;;;;3.97;1.08;;;;;;;-142.75;100.00;75129.63;5073273;28;20016;-64
2023/07/31 08:43:01;;;;;;;2.13;0.85;;;;;;;-142.75;100.00;75129.63;5075420;28;20034;-64
2023/07/31 08:45:27;;;;;;;1.75;0.70;;;;;;;-142.75;100.00;75129.63;5078710;28;20040;-64
2023/07/31 08:47:53;;;;;;;3.17;0.80;;;;;;;-142.75;100.00;75137.50;5090622;28;20027;-63
2023/07/31 08:50:20;;;;;;;1.35;0.93;;;;;;;-142.75;100.00;75121.75;5087160;28;20021;-64
2023/07/31 08:52:47;;;;;;;1.95;0.85;;;;;;;-142.75;100.00;75129.63;5068817;28;20029;-64
2023/07/31 08:55:13;;;;;;;1.95;0.70;;;;;;;-142.75;100.00;75107.97;5068973;28;20028;-64
2023/07/31 08:57:39;;;;;;;1.52;0.60;;;;;;;-142.75;100.00;75117.81;5070309;28;20088;-65
2023/07/31 09:00:06;;;;;;;2.03;0.60;;;;;;;-142.75;100.00;75117.81;5073530;28;20021;-64
2023/07/31 09:02:41;;;;;;;1.25;0.68;;;;;;;-142.75;100.00;75102.06;5081067;28;20574;-64
2023/07/31 09:05:07;;;;;;;2.08;0.70;;;;;;;-142.75;100.00;75113.88;5087686;28;20024;-64
2023/07/31 09:07:35;;;;;;;2.42;0.65;;;;;;;-142.75;100.00;75125.69;5080990;28;20491;-66
2023/07/31 09:10:00;;;;;;;5.47;1.60;;;;;;;-142.75;100.00;75137.50;5072474;28;20024;-62
2023/07/31 09:12:26;;;;;;;2.95;0.85;;;;;;;-142.75;100.00;75147.34;5069482;28;20119;-62
2023/07/31 09:14:51;;;;;;;1.92;1.00;;;;;;;-142.75;100.00;75137.50;5070823;28;20035;-62
2023/07/31 09:17:29;;;;;;;2.35;0.90;;;;;;;-142.75;100.00;75119.78;5070750;28;20541;-62
2023/07/31 09:19:55;;;;;;;2.45;1.40;;;;;;;-142.75;100.00;75113.88;5070439;28;20028;-62
2023/07/31 09:22:33;;;;;;;3.75;1.67;;;;;;;-142.75;100.00;75104.03;5069562;28;20078;-62
2023/07/31 09:25:14;;;;;;;3.40;1.48;;;;;;;-142.75;100.00;75082.41;5070419;28;20047;-62
2023/07/31 09:27:50;;;;;;;2.90;1.55;;;;;;;-142.75;100.00;75090.28;5070130;28;20036;-62
2023/07/31 09:30:15;;;;;;;;;;;;;;;-142.75;100.00;75066.66;5069518;28;20085;-62
2023/07/31 09:32:44;;;;;;;5.17;1.33;;;;;;;-142.75;100.00;75102.06;5069999;28;19912;-62
2023/07/31 09:35:28;;;;;;;2.17;1.38;;;;;;;-142.75;100.00;75070.59;5069992;28;20039;-62
2023/07/31 09:37:56;;;;;;;3.00;1.35;;;;;;;-142.75;100.00;75062.72;5070125;28;20074;-61
2023/07/31 09:40:30;;;;;;;3.58;1.77;;;;;;;-142.75;100.00;75058.78;5069951;28;20024;-61
2023/07/31 09:43:06;;;;;;;5.95;1.70;;;;;;;-142.75;100.00;75058.78;5072655;28;20036;-62
2023/07/31 09:45:36;;;;;;;4.85;1.80;;;;;;;-142.75;100.00;75050.91;5090834;28;20031;-62
2023/07/31 09:48:02;;;;;;;3.58;1.67;;;;;;;-142.75;100.00;75078.47;5090018;28;20020;-61
2023/07/31 09:50:27;;;;;;;4.57;1.75;;;;;;;-142.75;100.00;75064.69;5090427;28;20483;-62
2023/07/31 09:52:53;;;;;;;4.82;1.90;;;;;;;-142.75;100.00;75052.88;5090263;28;20081;-63
2023/07/31 09:55:19;;;;;;;3.20;1.33;;;;;;;-142.75;100.00;75039.13;5090704;28;20020;-62
2023/07/31 09:57:47;;;;;;;4.07;1.65;;;;;;;-142.75;100.00;75050.91;5090377;28;20074;-62
2023/07/31 10:00:15;;;;;;;4.20;2.00;;;;;;;-142.75;100.00;75058.78;5090437;28;20103;-62
2023/07/31 10:02:41;;;;;;;2.88;1.67;;;;;;;-142.75;100.00;75072.56;5090206;28;20038;-62
2023/07/31 10:05:07;;;;;;;4.35;1.23;;;;;;;-142.75;100.00;75058.78;5090423;28;20028;-62
2023/07/31 10:07:40;;;;;;;3.38;1.50;;;;;;;-142.75;100.00;75045.00;5090373;28;20073;-62
2023/07/31 10:10:08;;;;;;;3.65;1.40;;;;;;;-142.75;100.00;75046.97;5090228;28;20048;-63
2023/07/31 10:12:34;;;;;;;5.22;1.50;;;;;;;-142.75;100.00;75068.63;5090104;28;20056;-62
2023/07/31 10:15:00;;;;;;;3.75;1.88;;;;;;;-142.75;100.00;75050.91;5090363;28;20020;-63
2023/07/31 10:17:26;;;;;;;3.78;1.40;;;;;;;-142.75;100.00;75058.78;5090432;28;20036;-63
2023/07/31 10:19:53;;;;;;;2.03;1.30;;;;;;;-142.75;100.00;75062.72;5090257;28;20387;-63
2023/07/31 10:22:19;;;;;;;2.47;1.40;;;;;;;-142.75;100.00;75058.78;5090020;28;20123;-63
2023/07/31 10:24:45;;;;;;;2.25;1.15;;;;;;;-142.75;100.00;75068.63;5090089;28;20403;-63
2023/07/31 10:27:12;;;;;;;1.70;1.20;;;;;;;-142.75;100.00;75080.44;5090006;28;20099;-62
2023/07/31 10:29:39;;;;;;;4.15;1.60;;;;;;;-142.75;100.00;75064.69;5089724;28;20454;-59
2023/07/31 10:32:09;;;;;;;4.57;1.45;;;;;;;-142.75;100.00;75066.66;5089772;28;20023;-63
2023/07/31 10:34:36;;;;;;;5.25;1.45;;;;;;;-142.75;100.00;75072.56;5089975;28;20032;-63
2023/07/31 10:37:29;;;;;;;6.15;2.08;;;;;;;-142.75;100.00;75068.63;5089718;28;20399;-63
2023/07/31 10:40:04;;;;;;;3.47;1.60;;;;;;;-142.75;100.00;75058.78;5089616;28;20062;-63
2023/07/31 10:42:39;;;;;;;5.78;1.70;;;;;;;-142.75;100.00;75058.78;5089415;28;20081;-63
2023/07/31 10:45:07;;;;;;;5.63;1.80;;;;;;;-142.75;100.00;75078.47;5089671;28;20020;-63
2023/07/31 10:47:43;;;;;;;4.68;1.77;;;;;;;-142.75;100.00;75070.59;5090119;28;20028;-63
2023/07/31 10:50:21;;;;;;;7.47;2.45;;;;;;;-142.75;100.00;75058.78;5089378;28;20051;-63
2023/07/31 10:52:51;;;;;;;6.68;2.38;;;;;;;-142.75;100.00;75048.94;5089262;28;20020;-62
2023/07/31 10:55:43;;;;;;;7.00;2.50;;;;;;;-142.75;100.00;75046.97;5089549;28;20556;-63
2023/07/31 10:58:13;;;;;;;5.95;2.83;;;;;;;-142.75;100.00;75058.78;5089510;28;20033;-63
2023/07/31 11:00:41;;;;;;;6.18;2.42;;;;;;;-142.75;100.00;75045.00;5089773;28;20024;-62
2023/07/31 11:03:08;;;;;;;7.72;2.80;;;;;;;-142.75;100.00;75035.19;5089194;28;20047;-61
2023/07/31 11:05:47;;;;;;;7.20;3.40;;;;;;;-142.75;100.00;75043.03;5089245;28;20031;-63